Voyager Of The Seas — C6SE5 — position and weather

sailwx.info

Track history (hours):
 
Tides and Currents Weather Stations Pressure Air Temp Water Temp Dewpoint Dewpoint Depression Visibility Wind Speed Wind Dir Waves Ship Positions

Voyager Of The Seas

Operator: Royal Caribbean Cruises Ltd

Last reported at 2017-Oct-18 20:32 UTC. Time now 2017-Oct-20 19:58 UTC.
Position N 01°16' E 103°52'.

Type: Passenger vessel. MMSI: 311317000.

Date/timePositionNaut miles runAvg speedWind from/ knotsBaromVisibWave heightAir tempDewpointWater temp
2017-Oct-18 20:32N 01°16' E 103°52'0 0.0
2017-Oct-18 20:22N 01°16' E 103°52'0 0.0
2017-Oct-18 18:55N 01°16' E 103°52'0 0.0
2017-Oct-18 18:15N 01°16' E 103°52'0 0.0
2017-Oct-18 17:56N 01°16' E 103°52'0 0.0
2017-Oct-18 17:14N 01°16' E 103°52'0 0.0
2017-Oct-18 16:52N 01°16' E 103°52'0 0.0
2017-Oct-18 16:21N 01°16' E 103°52'0 0.0
2017-Oct-18 14:58N 01°16' E 103°52'4632.5
2017-Oct-18 13:34N 01°27' E 103°07'817.8
2017-Oct-18 13:08N 01°23' E 103°14'418.0
2017-Oct-18 12:56N 01°21' E 103°17'817.9
2017-Oct-18 12:30N 01°16' E 103°23'1019.2
2017-Oct-18 11:59N 01°12' E 103°32'919.2
2017-Oct-18 11:30N 01°10' E 103°41'816.2
2017-Oct-18 10:59N 01°11' E 103°49'5 9.6
2017-Oct-18 10:30N 01°15' E 103°52'1 1.4
2017-Oct-18 09:51N 01°16' E 103°52'0 0.3
2017-Oct-18 09:30N 01°16' E 103°52'0 0.6
2017-Oct-18 09:00N 01°16' E 103°51'1 2.3
2017-Oct-18 08:30N 01°15' E 103°52'2 3.6
2017-Oct-18 08:00N 01°14' E 103°54'1 2.2
2017-Oct-18 07:30N 01°14' E 103°55'2 4.2
2017-Oct-18 07:00N 01°15' E 103°57'5 6.7
2017-Oct-18 06:13N 01°16' E 103°52'0 0.0
2017-Oct-18 05:55N 01°16' E 103°52'0 0.0
2017-Oct-18 05:16N 01°16' E 103°52'0 0.0
2017-Oct-18 04:55N 01°16' E 103°52'0 0.0
2017-Oct-18 04:13N 01°16' E 103°52'0 0.0
2017-Oct-18 03:58N 01°16' E 103°52'0 0.0
2017-Oct-18 03:28N 01°16' E 103°52'0 0.0
2017-Oct-18 02:58N 01°16' E 103°52'0 0.0
2017-Oct-18 02:28N 01°16' E 103°52'0 0.0
2017-Oct-18 01:58N 01°16' E 103°52'0 0.0
2017-Oct-18 01:07N 01°16' E 103°52'0 0.0
2017-Oct-18 00:34N 01°16' E 103°52'0 0.0
2017-Oct-18 00:10N 01°16' E 103°52'0 0.0
2017-Oct-17 23:40N 01°16' E 103°52'0 0.0
2017-Oct-17 23:17N 01°16' E 103°52'0 1.3
2017-Oct-17 23:00N 01°16' E 103°51'  
2017-Oct-14 01:57N 16°22' E 108°04'1018.4
2017-Oct-14 01:25N 16°17' E 108°13'1019.5
2017-Oct-14 00:55N 16°11' E 108°21'819.4
2017-Oct-14 00:30N 16°06' E 108°27'  
2017-Oct-10 12:19N 22°21' E 120°00'413.9
2017-Oct-10 12:00N 22°24' E 120°04'713.8
2017-Oct-10 11:30N 22°29' E 120°09'713.6
2017-Oct-10 11:00N 22°33' E 120°15'3 5.5
2017-Oct-10 10:22N 22°34' E 120°18'3 7.3
2017-Oct-10 10:00N 22°37' E 120°17'0 0.7
2017-Oct-10 09:25N 22°37' E 120°17'0 0.0
2017-Oct-10 08:55N 22°37' E 120°17'0 0.0
2017-Oct-10 08:28N 22°37' E 120°17'0 0.0
2017-Oct-10 07:58N 22°37' E 120°17'0 0.0
2017-Oct-10 07:22N 22°37' E 120°17'0 0.0
2017-Oct-10 06:58N 22°37' E 120°17'0 0.0
2017-Oct-10 06:25N 22°37' E 120°17'0 0.0
2017-Oct-10 05:55N 22°37' E 120°17'0 0.0
2017-Oct-10 05:25N 22°37' E 120°17'0 0.0
2017-Oct-10 04:58N 22°37' E 120°17'0 0.0
2017-Oct-10 04:28N 22°37' E 120°17'0 0.0
2017-Oct-10 03:58N 22°37' E 120°17'0 0.0
2017-Oct-10 03:22N 22°37' E 120°17'0 0.0
2017-Oct-10 02:43N 22°37' E 120°17'0 0.0
2017-Oct-10 01:40N 22°37' E 120°17'0 0.0
2017-Oct-10 01:28N 22°37' E 120°17'0 0.0
2017-Oct-10 00:55N 22°37' E 120°17'0 0.0
2017-Oct-10 00:25N 22°37' E 120°17'0 0.0
2017-Oct-09 23:58N 22°37' E 120°17'0 0.0
2017-Oct-09 23:25N 22°37' E 120°17'0 0.0
2017-Oct-09 22:58N 22°37' E 120°17'0 0.1
2017-Oct-09 22:30N 22°37' E 120°17'1 2.1
2017-Oct-09 22:00N 22°36' E 120°17'3 6.2
2017-Oct-09 21:30N 22°33' E 120°19'4 8.8
2017-Oct-09 21:00N 22°32' E 120°14'714.5
2017-Oct-09 20:30N 22°30' E 120°07'714.8
2017-Oct-09 20:00N 22°28' E 119°59'1314.6
2017-Oct-09 19:09N 22°26' E 119°46'515.6
2017-Oct-09 18:50N 22°26' E 119°40'515.6
2017-Oct-09 18:30N 22°26' E 119°35'815.9
2017-Oct-09 18:00N 22°25' E 119°26'815.6
2017-Oct-09 17:30N 22°24' E 119°18'  
Track history (hours):
 
Tides and Currents Weather Stations Pressure Air Temp Water Temp Dewpoint Dewpoint Depression Visibility Wind Speed Wind Dir Waves Ship Positions

Voyager Of The Seas

Operator: Royal Caribbean Cruises Ltd

Last reported at 2017-Oct-18 20:32 UTC. Time now 2017-Oct-20 19:58 UTC.
Position N 01°16' E 103°52'.

Type: Passenger vessel. MMSI: 311317000.

Date/timePositionNaut miles runAvg speedWind from/ knotsBaromVisibWave heightAir tempDewpointWater temp
2017-Oct-18 20:32N 01°16' E 103°52'0 0.0
2017-Oct-18 20:22N 01°16' E 103°52'0 0.0
2017-Oct-18 18:55N 01°16' E 103°52'0 0.0
2017-Oct-18 18:15N 01°16' E 103°52'0 0.0
2017-Oct-18 17:56N 01°16' E 103°52'0 0.0
2017-Oct-18 17:14N 01°16' E 103°52'0 0.0
2017-Oct-18 16:52N 01°16' E 103°52'0 0.0
2017-Oct-18 16:21N 01°16' E 103°52'0 0.0
2017-Oct-18 14:58N 01°16' E 103°52'4632.5
2017-Oct-18 13:34N 01°27' E 103°07'817.8
2017-Oct-18 13:08N 01°23' E 103°14'418.0
2017-Oct-18 12:56N 01°21' E 103°17'817.9
2017-Oct-18 12:30N 01°16' E 103°23'1019.2
2017-Oct-18 11:59N 01°12' E 103°32'919.2
2017-Oct-18 11:30N 01°10' E 103°41'816.2
2017-Oct-18 10:59N 01°11' E 103°49'5 9.6
2017-Oct-18 10:30N 01°15' E 103°52'1 1.4
2017-Oct-18 09:51N 01°16' E 103°52'0 0.3
2017-Oct-18 09:30N 01°16' E 103°52'0 0.6
2017-Oct-18 09:00N 01°16' E 103°51'1 2.3
2017-Oct-18 08:30N 01°15' E 103°52'2 3.6
2017-Oct-18 08:00N 01°14' E 103°54'1 2.2
2017-Oct-18 07:30N 01°14' E 103°55'2 4.2
2017-Oct-18 07:00N 01°15' E 103°57'5 6.7
2017-Oct-18 06:13N 01°16' E 103°52'0 0.0
2017-Oct-18 05:55N 01°16' E 103°52'0 0.0
2017-Oct-18 05:16N 01°16' E 103°52'0 0.0
2017-Oct-18 04:55N 01°16' E 103°52'0 0.0
2017-Oct-18 04:13N 01°16' E 103°52'0 0.0
2017-Oct-18 03:58N 01°16' E 103°52'0 0.0
2017-Oct-18 03:28N 01°16' E 103°52'0 0.0
2017-Oct-18 02:58N 01°16' E 103°52'0 0.0
2017-Oct-18 02:28N 01°16' E 103°52'0 0.0
2017-Oct-18 01:58N 01°16' E 103°52'0 0.0
2017-Oct-18 01:07N 01°16' E 103°52'0 0.0
2017-Oct-18 00:34N 01°16' E 103°52'0 0.0
2017-Oct-18 00:10N 01°16' E 103°52'0 0.0
2017-Oct-17 23:40N 01°16' E 103°52'0 0.0
2017-Oct-17 23:17N 01°16' E 103°52'0 1.3
2017-Oct-17 23:00N 01°16' E 103°51'  
2017-Oct-14 01:57N 16°22' E 108°04'1018.4
2017-Oct-14 01:25N 16°17' E 108°13'1019.5
2017-Oct-14 00:55N 16°11' E 108°21'819.4
2017-Oct-14 00:30N 16°06' E 108°27'  
2017-Oct-10 12:19N 22°21' E 120°00'413.9
2017-Oct-10 12:00N 22°24' E 120°04'713.8
2017-Oct-10 11:30N 22°29' E 120°09'713.6
2017-Oct-10 11:00N 22°33' E 120°15'3 5.5
2017-Oct-10 10:22N 22°34' E 120°18'3 7.3
2017-Oct-10 10:00N 22°37' E 120°17'0 0.7
2017-Oct-10 09:25N 22°37' E 120°17'0 0.0
2017-Oct-10 08:55N 22°37' E 120°17'0 0.0
2017-Oct-10 08:28N 22°37' E 120°17'0 0.0
2017-Oct-10 07:58N 22°37' E 120°17'0 0.0
2017-Oct-10 07:22N 22°37' E 120°17'0 0.0
2017-Oct-10 06:58N 22°37' E 120°17'0 0.0
2017-Oct-10 06:25N 22°37' E 120°17'0 0.0
2017-Oct-10 05:55N 22°37' E 120°17'0 0.0
2017-Oct-10 05:25N 22°37' E 120°17'0 0.0
2017-Oct-10 04:58N 22°37' E 120°17'0 0.0
2017-Oct-10 04:28N 22°37' E 120°17'0 0.0
2017-Oct-10 03:58N 22°37' E 120°17'0 0.0
2017-Oct-10 03:22N 22°37' E 120°17'0 0.0
2017-Oct-10 02:43N 22°37' E 120°17'0 0.0
2017-Oct-10 01:40N 22°37' E 120°17'0 0.0
2017-Oct-10 01:28N 22°37' E 120°17'0 0.0
2017-Oct-10 00:55N 22°37' E 120°17'0 0.0
2017-Oct-10 00:25N 22°37' E 120°17'0 0.0
2017-Oct-09 23:58N 22°37' E 120°17'0 0.0
2017-Oct-09 23:25N 22°37' E 120°17'0 0.0
2017-Oct-09 22:58N 22°37' E 120°17'0 0.1
2017-Oct-09 22:30N 22°37' E 120°17'1 2.1
2017-Oct-09 22:00N 22°36' E 120°17'3 6.2
2017-Oct-09 21:30N 22°33' E 120°19'4 8.8
2017-Oct-09 21:00N 22°32' E 120°14'714.5
2017-Oct-09 20:30N 22°30' E 120°07'714.8
2017-Oct-09 20:00N 22°28' E 119°59'1314.6
2017-Oct-09 19:09N 22°26' E 119°46'515.6
2017-Oct-09 18:50N 22°26' E 119°40'515.6
2017-Oct-09 18:30N 22°26' E 119°35'815.9
2017-Oct-09 18:00N 22°25' E 119°26'815.6
2017-Oct-09 17:30N 22°24' E 119°18'  

Dump ship's entire track history